createdAt,value
2017-09-01T00:00:01.635Z,46.67
2017-09-01T00:02:30.068Z,55.57
2017-09-01T00:04:58.457Z,46.53
2017-09-01T00:07:26.851Z,50.83
2017-09-01T00:09:55.185Z,47.90
2017-09-01T00:12:23.637Z,52.20
2017-09-01T00:14:52.018Z,49.40
2017-09-01T00:17:20.367Z,46.87
2017-09-01T00:19:48.706Z,53.23
2017-09-01T00:22:17.073Z,49.83
2017-09-01T00:24:45.496Z,52.23
2017-09-01T00:27:13.878Z,51.20
2017-09-01T00:29:42.271Z,50.13
2017-09-01T00:32:10.658Z,45.17
2017-09-01T00:34:39.031Z,57.57
2017-09-01T00:37:07.403Z,74.27
2017-09-01T00:39:35.759Z,56.07
2017-09-01T00:42:04.156Z,46.03
2017-09-01T00:44:32.482Z,51.40
2017-09-01T00:47:00.832Z,53.47
2017-09-01T00:49:29.207Z,55.17
2017-09-01T00:51:57.586Z,56.83
2017-09-01T00:54:25.974Z,96.33
2017-09-01T00:56:54.310Z,66.20
2017-09-01T00:59:22.654Z,58.77
2017-09-01T01:01:51.079Z,55.93
2017-09-01T01:04:19.537Z,63.83
2017-09-01T01:06:47.936Z,59.00
2017-09-01T01:09:16.332Z,58.67
2017-09-01T01:11:44.666Z,49.93
2017-09-01T01:14:13.015Z,57.87
2017-09-01T01:16:41.494Z,70.53
2017-09-01T01:19:09.834Z,52.97
2017-09-01T01:21:38.170Z,55.90
2017-09-01T01:24:06.514Z,54.80
2017-09-01T01:26:34.967Z,58.20
2017-09-01T01:29:03.355Z,60.90
2017-09-01T01:31:31.751Z,49.73
2017-09-01T01:34:00.146Z,53.47
2017-09-01T01:36:28.485Z,57.80
2017-09-01T01:38:56.830Z,50.23
2017-09-01T01:41:25.310Z,54.30
2017-09-01T01:43:53.698Z,60.20
2017-09-01T01:46:22.095Z,59.70
2017-09-01T01:48:50.435Z,56.33
2017-09-01T01:51:18.882Z,52.03
2017-09-01T01:53:47.251Z,44.40
2017-09-01T01:56:15.670Z,50.07
2017-09-01T01:58:44.027Z,59.73
2017-09-01T02:01:12.376Z,74.47
2017-09-01T02:03:40.841Z,50.40
2017-09-01T02:06:09.235Z,42.13
2017-09-01T02:08:37.643Z,40.83
2017-09-01T02:11:06.035Z,38.37
2017-09-01T02:13:34.396Z,38.90
2017-09-01T02:16:02.736Z,41.37
2017-09-01T02:18:31.177Z,46.23
2017-09-01T02:20:59.548Z,55.53
2017-09-01T02:23:27.928Z,66.67
2017-09-01T02:25:56.355Z,54.50
2017-09-01T02:28:24.718Z,45.37
2017-09-01T02:30:53.067Z,50.80
2017-09-01T02:33:21.422Z,57.13
2017-09-01T02:35:50.165Z,49.37
2017-09-01T02:38:18.673Z,53.40
2017-09-01T02:40:47.127Z,44.27
2017-09-01T02:43:15.507Z,44.87
2017-09-01T02:45:43.890Z,48.80
2017-09-01T02:48:12.290Z,49.23
2017-09-01T02:50:40.680Z,48.43
2017-09-01T02:53:09.055Z,56.50
2017-09-01T02:55:37.392Z,50.67
2017-09-01T02:58:05.770Z,52.30
2017-09-01T03:00:34.158Z,52.00
2017-09-01T03:03:02.494Z,48.60
2017-09-01T03:05:30.922Z,47.13
2017-09-01T03:07:59.310Z,58.63
2017-09-01T03:10:27.659Z,60.80
2017-09-01T03:12:56.089Z,51.23
2017-09-01T03:15:24.522Z,43.30
2017-09-01T03:17:52.889Z,39.40
2017-09-01T03:20:21.271Z,39.23
2017-09-01T03:22:49.662Z,39.67
2017-09-01T03:25:18.049Z,43.97
2017-09-01T03:27:46.394Z,37.53
2017-09-01T03:30:14.830Z,31.97
2017-09-01T03:32:43.185Z,40.73
2017-09-01T03:35:11.523Z,36.27
2017-09-01T03:37:39.930Z,43.40
2017-09-01T03:40:08.294Z,40.67
2017-09-01T03:42:36.638Z,40.87
2017-09-01T03:45:04.983Z,34.53
2017-09-01T03:47:33.379Z,37.73
2017-09-01T03:50:01.766Z,33.60
2017-09-01T03:52:30.126Z,37.27
2017-09-01T03:54:58.462Z,51.93
2017-09-01T03:57:26.830Z,37.17
2017-09-01T03:59:55.170Z,36.77
2017-09-01T04:02:23.614Z,31.77
2017-09-01T04:04:52.006Z,36.70
2017-09-01T04:07:20.378Z,30.13
2017-09-01T04:09:48.789Z,44.87
2017-09-01T04:12:17.162Z,47.03
2017-09-01T04:14:45.531Z,34.40
2017-09-01T04:17:13.898Z,27.90
2017-09-01T04:19:42.234Z,29.33
2017-09-01T04:22:10.751Z,29.70
2017-09-01T04:24:39.139Z,31.33
2017-09-01T04:27:07.525Z,26.47
2017-09-01T04:29:35.860Z,29.63
2017-09-01T04:32:04.197Z,26.20
2017-09-01T04:34:32.547Z,29.20
2017-09-01T04:37:00.986Z,29.17
2017-09-01T04:39:29.365Z,28.70
2017-09-01T04:41:57.715Z,22.83
2017-09-01T04:44:26.076Z,25.10
2017-09-01T04:46:54.414Z,24.60
2017-09-01T04:49:22.853Z,30.00
2017-09-01T04:51:51.182Z,28.70
2017-09-01T04:54:19.626Z,25.70
2017-09-01T04:56:48.014Z,22.30
2017-09-01T04:59:16.415Z,21.90
2017-09-01T05:01:44.787Z,26.47
2017-09-01T05:04:13.154Z,24.40
2017-09-01T05:06:41.616Z,23.87
2017-09-01T05:09:09.948Z,27.20
2017-09-01T05:11:38.298Z,26.43
2017-09-01T05:14:06.726Z,20.30
2017-09-01T05:16:35.250Z,21.33
2017-09-01T05:19:03.642Z,23.00
2017-09-01T05:21:32.042Z,17.30
2017-09-01T05:24:00.423Z,25.43
2017-09-01T05:26:28.806Z,17.93
2017-09-01T05:28:57.220Z,20.00
2017-09-01T05:31:25.621Z,24.13
2017-09-01T05:33:54.024Z,20.77
2017-09-01T05:36:22.382Z,19.00
2017-09-01T05:38:50.727Z,17.90
2017-09-01T05:41:19.196Z,18.63
2017-09-01T05:43:47.659Z,17.37
2017-09-01T05:46:16.042Z,20.27
2017-09-01T05:48:44.375Z,16.20
2017-09-01T05:51:12.759Z,17.73
2017-09-01T05:53:41.222Z,16.10
2017-09-01T05:56:09.562Z,26.93
2017-09-01T05:58:37.907Z,16.60
2017-09-01T06:01:06.247Z,15.90
2017-09-01T06:03:34.682Z,13.23
2017-09-01T06:06:03.022Z,25.00
2017-09-01T06:08:31.363Z,13.80
2017-09-01T06:10:59.702Z,18.03
2017-09-01T06:13:28.076Z,18.73
2017-09-01T06:15:56.410Z,18.00
2017-09-01T06:18:25.243Z,22.30
2017-09-01T06:20:53.580Z,22.77
2017-09-01T06:23:21.947Z,11.47
2017-09-01T06:25:50.282Z,9.07
2017-09-01T06:28:18.627Z,10.30
2017-09-01T06:30:46.985Z,10.73
2017-09-01T06:33:15.382Z,11.77
2017-09-01T06:35:43.766Z,11.53
2017-09-01T06:38:12.097Z,8.73
2017-09-01T06:40:40.455Z,14.73
2017-09-01T06:43:08.817Z,13.70
2017-09-01T06:45:37.232Z,10.20
2017-09-01T06:48:05.635Z,10.73
2017-09-01T06:50:34.007Z,17.60
2017-09-01T06:53:02.401Z,10.30
2017-09-01T06:55:30.745Z,9.93
2017-09-01T06:57:59.119Z,24.10
2017-09-01T07:00:27.478Z,11.60
2017-09-01T07:02:55.869Z,11.43
2017-09-01T07:05:24.233Z,11.77
2017-09-01T07:07:52.646Z,9.07
2017-09-01T07:10:21.001Z,8.10
2017-09-01T07:12:49.439Z,9.73
2017-09-01T07:15:17.797Z,7.53
2017-09-01T07:17:46.135Z,12.40
2017-09-01T07:20:14.641Z,8.37
2017-09-01T07:22:43.004Z,10.00
2017-09-01T07:25:11.339Z,7.10
2017-09-01T07:27:39.781Z,6.10
2017-09-01T07:30:08.114Z,6.80
2017-09-01T07:32:36.458Z,8.97
2017-09-01T07:35:04.823Z,6.97
2017-09-01T07:37:33.168Z,8.00
2017-09-01T07:40:01.531Z,9.17
2017-09-01T07:42:29.861Z,10.10
2017-09-01T07:44:58.222Z,5.43
2017-09-01T07:47:26.557Z,13.10
2017-09-01T07:49:54.899Z,7.40
2017-09-01T07:52:23.253Z,7.53
2017-09-01T07:54:51.586Z,5.77
2017-09-01T07:57:19.961Z,8.10
2017-09-01T07:59:48.359Z,5.23
2017-09-01T08:02:16.694Z,7.73
2017-09-01T08:04:45.031Z,6.70
2017-09-01T08:07:13.442Z,6.83
2017-09-01T08:09:41.825Z,5.83
2017-09-01T08:12:10.215Z,8.97
2017-09-01T08:14:38.541Z,5.00
2017-09-01T08:17:06.923Z,6.20
2017-09-01T08:19:35.307Z,7.30
2017-09-01T08:22:03.639Z,5.07
2017-09-01T08:24:31.997Z,7.67
2017-09-01T08:27:00.324Z,3.17
2017-09-01T08:29:28.661Z,5.73
2017-09-01T08:31:56.995Z,3.10
2017-09-01T08:34:25.431Z,2.67
2017-09-01T08:36:53.761Z,6.40
2017-09-01T08:39:22.117Z,3.70
2017-09-01T08:41:50.455Z,5.00
2017-09-01T08:44:18.889Z,5.07
2017-09-01T08:46:47.283Z,5.73
2017-09-01T08:49:15.612Z,7.03
2017-09-01T08:51:44.067Z,4.63
2017-09-01T08:54:12.675Z,3.10
2017-09-01T08:56:41.155Z,3.43
2017-09-01T08:59:09.502Z,5.63
2017-09-01T09:01:37.937Z,3.73
2017-09-01T09:04:06.332Z,5.27
2017-09-01T09:06:34.722Z,9.43
2017-09-01T09:09:03.058Z,6.90
2017-09-01T09:11:31.427Z,10.43
2017-09-01T09:13:59.765Z,8.50
2017-09-01T09:16:28.190Z,10.27
2017-09-01T09:18:56.576Z,5.43
2017-09-01T09:21:24.919Z,10.67
2017-09-01T09:23:53.278Z,6.17
2017-09-01T09:26:21.635Z,6.40
2017-09-01T09:28:50.141Z,8.30
2017-09-01T09:31:18.482Z,8.93
2017-09-01T09:33:46.815Z,7.60
2017-09-01T09:36:15.242Z,4.87
2017-09-01T09:38:43.633Z,16.00
2017-09-01T09:41:12.007Z,8.00
2017-09-01T09:43:40.382Z,8.03
2017-09-01T09:46:08.745Z,8.13
2017-09-01T09:48:37.082Z,16.53
2017-09-01T09:51:05.425Z,7.80
2017-09-01T09:53:33.777Z,9.37
2017-09-01T09:56:02.363Z,7.00
2017-09-01T09:58:30.735Z,7.43
2017-09-01T10:00:59.082Z,14.03
2017-09-01T10:03:27.414Z,4.20
2017-09-01T10:05:55.754Z,5.57
2017-09-01T10:08:24.099Z,10.87
2017-09-01T10:10:52.475Z,6.53
2017-09-01T10:13:20.813Z,10.83
2017-09-01T10:15:49.176Z,5.40
2017-09-01T10:18:17.544Z,7.37
2017-09-01T10:20:45.907Z,6.03
2017-09-01T10:23:14.260Z,7.33
2017-09-01T10:25:42.577Z,4.07
2017-09-01T10:28:10.943Z,8.20
2017-09-01T10:30:39.282Z,12.17
2017-09-01T10:33:07.614Z,5.50
2017-09-01T10:35:35.970Z,6.00
2017-09-01T10:38:04.299Z,7.33
2017-09-01T10:40:32.662Z,5.47
2017-09-01T10:43:01.398Z,8.90
2017-09-01T10:45:29.758Z,8.67
2017-09-01T10:48:09.886Z,7.50
2017-09-01T10:50:49.759Z,6.30
2017-09-01T10:53:29.707Z,4.63
2017-09-01T10:56:09.640Z,7.43
2017-09-01T10:58:38.006Z,8.80
2017-09-01T11:01:06.339Z,8.00
2017-09-01T11:03:34.711Z,6.57
2017-09-01T11:06:03.074Z,8.97
2017-09-01T11:08:31.440Z,12.13
2017-09-01T11:10:59.779Z,11.17
2017-09-01T11:13:28.155Z,10.23
2017-09-01T11:15:56.490Z,16.20
2017-09-01T11:18:24.843Z,6.43
2017-09-01T11:21:07.422Z,7.00
2017-09-01T11:23:41.236Z,7.90
2017-09-01T11:26:09.565Z,7.80
2017-09-01T11:28:37.899Z,11.27
2017-09-01T11:31:06.274Z,5.97
2017-09-01T11:33:34.603Z,8.67
2017-09-01T11:36:02.935Z,11.63
2017-09-01T11:38:31.278Z,10.50
2017-09-01T11:40:59.615Z,7.50
2017-09-01T11:43:28.375Z,10.73
2017-09-01T11:45:56.706Z,7.23
2017-09-01T11:48:25.029Z,8.60
2017-09-01T11:50:53.382Z,5.63
2017-09-01T11:53:21.768Z,14.80
2017-09-01T11:55:50.098Z,8.20
2017-09-01T11:58:18.439Z,4.90
2017-09-01T12:00:46.774Z,8.10
2017-09-01T12:03:15.101Z,6.73
2017-09-01T12:05:43.458Z,9.70
2017-09-01T12:08:11.786Z,7.90
2017-09-01T12:10:40.118Z,6.47
2017-09-01T12:13:08.458Z,13.73
2017-09-01T12:15:37.083Z,14.37
2017-09-01T12:18:05.414Z,19.13
2017-09-01T12:20:33.780Z,16.33
2017-09-01T12:23:02.123Z,6.80
2017-09-01T12:25:30.462Z,16.50
2017-09-01T12:27:58.834Z,10.13
2017-09-01T12:30:27.174Z,20.53
2017-09-01T12:32:55.565Z,15.73
2017-09-01T12:35:23.910Z,9.20
2017-09-01T12:37:52.259Z,8.27
2017-09-01T12:40:20.598Z,8.70
2017-09-01T12:42:48.936Z,10.57
2017-09-01T12:45:17.278Z,10.70
2017-09-01T12:47:45.640Z,8.43
2017-09-01T12:50:14.005Z,12.90
2017-09-01T12:52:42.334Z,9.80
2017-09-01T12:55:10.670Z,9.80
2017-09-01T12:57:39.034Z,12.27
2017-09-01T13:00:07.376Z,10.97
2017-09-01T13:02:35.738Z,8.80
2017-09-01T13:05:04.075Z,10.10
2017-09-01T13:07:32.407Z,7.23
2017-09-01T13:10:00.766Z,14.00
2017-09-01T13:12:29.102Z,8.17
2017-09-01T13:14:57.445Z,10.00
2017-09-01T13:17:25.810Z,7.70
2017-09-01T13:19:54.142Z,11.03
2017-09-01T13:22:22.518Z,11.63
2017-09-01T13:24:50.864Z,13.10
2017-09-01T13:27:19.198Z,10.77
2017-09-01T13:29:47.564Z,11.00
2017-09-01T13:32:15.914Z,10.87
2017-09-01T13:34:44.238Z,9.07
2017-09-01T13:37:12.583Z,15.67
2017-09-01T13:39:40.951Z,8.97
2017-09-01T13:42:09.284Z,19.20
2017-09-01T13:44:37.617Z,15.97
2017-09-01T13:47:05.963Z,8.63
2017-09-01T13:49:34.294Z,9.73
2017-09-01T13:52:02.678Z,14.10
2017-09-01T13:54:31.006Z,9.97
2017-09-01T13:56:59.375Z,10.03
2017-09-01T13:59:27.714Z,12.23
2017-09-01T14:01:56.047Z,9.27
2017-09-01T14:04:24.407Z,9.30
2017-09-01T14:06:52.762Z,10.30
2017-09-01T14:09:21.119Z,17.23
2017-09-01T14:11:49.463Z,8.30
2017-09-01T14:14:17.787Z,9.23
2017-09-01T14:16:46.118Z,8.50
2017-09-01T14:19:14.462Z,7.80
2017-09-01T14:21:42.831Z,14.33
2017-09-01T14:24:11.175Z,9.80
2017-09-01T14:26:39.502Z,12.80
2017-09-01T14:29:07.838Z,11.27
2017-09-01T14:31:36.915Z,10.20
2017-09-01T14:34:05.246Z,9.90
2017-09-01T14:36:33.586Z,11.67
2017-09-01T14:39:02.050Z,10.00
2017-09-01T14:41:30.387Z,9.70
2017-09-01T14:43:58.732Z,11.17
2017-09-01T14:46:27.062Z,13.40
2017-09-01T14:48:55.456Z,18.30
2017-09-01T14:51:23.795Z,9.57
2017-09-01T14:53:52.128Z,14.90
2017-09-01T14:56:20.508Z,12.03
2017-09-01T14:58:48.847Z,10.57
2017-09-01T15:01:17.514Z,12.27
2017-09-01T15:03:45.855Z,12.63
2017-09-01T15:06:14.217Z,10.43
2017-09-01T15:08:42.567Z,11.80
2017-09-01T15:11:10.998Z,12.83
2017-09-01T15:13:39.366Z,11.87
2017-09-01T15:16:07.708Z,12.90
2017-09-01T15:18:36.046Z,11.60
2017-09-01T15:21:04.383Z,9.70
2017-09-01T15:23:32.725Z,9.00
2017-09-01T15:26:01.082Z,11.63
2017-09-01T15:28:29.428Z,13.30
2017-09-01T15:30:57.790Z,13.70
2017-09-01T15:33:26.123Z,12.43
2017-09-01T15:35:54.457Z,10.53
2017-09-01T15:38:22.822Z,11.00
2017-09-01T15:40:51.158Z,15.07
2017-09-01T15:43:19.499Z,11.17
2017-09-01T15:45:47.832Z,10.83
2017-09-01T15:48:16.162Z,11.70
2017-09-01T15:50:44.534Z,12.13
2017-09-01T15:53:12.867Z,12.73
2017-09-01T15:55:41.235Z,13.57
2017-09-01T15:58:09.575Z,14.40
2017-09-01T16:00:37.905Z,8.10
2017-09-01T16:03:06.239Z,12.60
2017-09-01T16:05:34.586Z,13.23
2017-09-01T16:08:03.058Z,10.07
2017-09-01T16:10:31.407Z,13.27
2017-09-01T16:12:59.751Z,13.77
2017-09-01T16:15:28.092Z,7.37
2017-09-01T16:17:56.427Z,8.83
2017-09-01T16:20:24.765Z,11.30
2017-09-01T16:22:53.118Z,9.70
2017-09-01T16:25:21.455Z,12.70
2017-09-01T16:27:49.799Z,10.23
2017-09-01T16:30:18.138Z,9.63
2017-09-01T16:32:46.528Z,10.53
2017-09-01T16:35:14.858Z,9.63
2017-09-01T16:37:43.204Z,11.27
2017-09-01T16:40:11.542Z,11.63
2017-09-01T16:42:39.878Z,13.10
2017-09-01T16:45:08.219Z,10.10
2017-09-01T16:47:36.554Z,9.30
2017-09-01T16:50:04.923Z,10.53
2017-09-01T16:52:33.258Z,12.67
2017-09-01T16:55:01.590Z,12.00
2017-09-01T16:57:29.934Z,12.23
2017-09-01T16:59:58.294Z,17.27
2017-09-01T17:02:26.683Z,11.40
2017-09-01T17:04:55.014Z,9.73
2017-09-01T17:07:23.355Z,14.80
2017-09-01T17:09:51.699Z,11.83
2017-09-01T17:12:20.058Z,14.40
2017-09-01T17:14:48.430Z,16.40
2017-09-01T17:17:16.773Z,10.87
2017-09-01T17:19:45.138Z,13.10
2017-09-01T17:22:13.485Z,13.73
2017-09-01T17:24:41.883Z,13.40
2017-09-01T17:27:10.245Z,12.93
2017-09-01T17:29:38.615Z,9.10
2017-09-01T17:32:06.953Z,16.33
2017-09-01T17:34:35.289Z,18.00
2017-09-01T17:37:03.635Z,22.03
2017-09-01T17:39:31.981Z,22.20
2017-09-01T17:42:00.320Z,18.00
2017-09-01T17:44:28.666Z,16.50
2017-09-01T17:46:57.003Z,19.40
2017-09-01T17:49:25.387Z,17.63
2017-09-01T17:51:53.726Z,16.33
2017-09-01T17:54:22.089Z,18.63
2017-09-01T17:56:50.480Z,18.80
2017-09-01T17:59:18.862Z,14.83
2017-09-01T18:01:47.206Z,23.17
2017-09-01T18:04:15.637Z,14.07
2017-09-01T18:06:44.002Z,15.53
2017-09-01T18:09:12.430Z,13.90
2017-09-01T18:11:40.822Z,15.40
2017-09-01T18:14:09.215Z,12.50
2017-09-01T18:16:37.555Z,13.90
2017-09-01T18:19:06.005Z,17.93
2017-09-01T18:21:34.383Z,17.80
2017-09-01T18:24:02.729Z,18.07
2017-09-01T18:26:31.132Z,14.30
2017-09-01T18:28:59.553Z,13.40
2017-09-01T18:31:27.917Z,19.93
2017-09-01T18:33:56.259Z,16.00
2017-09-01T18:36:24.635Z,23.67
2017-09-01T18:38:52.969Z,17.30
2017-09-01T18:41:21.315Z,15.20
2017-09-01T18:43:49.687Z,14.37
2017-09-01T18:46:18.038Z,17.93
2017-09-01T18:48:46.387Z,16.27
2017-09-01T18:51:14.779Z,17.13
2017-09-01T18:53:43.116Z,17.93
2017-09-01T18:56:11.576Z,12.40
2017-09-01T18:58:39.902Z,13.50
2017-09-01T19:01:08.575Z,14.17
2017-09-01T19:03:36.906Z,18.17
2017-09-01T19:06:05.246Z,11.00
2017-09-01T19:08:33.619Z,11.93
2017-09-01T19:11:01.979Z,17.33
2017-09-01T19:13:30.390Z,13.90
2017-09-01T19:15:58.731Z,11.53
2017-09-01T19:18:27.106Z,13.00
2017-09-01T19:20:55.474Z,10.40
2017-09-01T19:23:23.850Z,16.43
2017-09-01T19:25:53.347Z,14.00
2017-09-01T19:28:21.762Z,10.93
2017-09-01T19:30:50.193Z,15.77
2017-09-01T19:33:18.526Z,15.70
2017-09-01T19:35:46.874Z,18.60
2017-09-01T19:38:15.333Z,17.47
2017-09-01T19:40:43.674Z,11.60
2017-09-01T19:43:12.109Z,18.93
2017-09-01T19:45:40.451Z,11.57
2017-09-01T19:48:08.795Z,9.90
2017-09-01T19:50:37.322Z,17.40
2017-09-01T19:53:05.720Z,16.30
2017-09-01T19:55:34.054Z,12.33
2017-09-01T19:58:02.394Z,16.73
2017-09-01T20:00:30.754Z,12.50
2017-09-01T20:02:59.174Z,10.77
2017-09-01T20:05:27.536Z,12.77
2017-09-01T20:07:56.249Z,12.03
2017-09-01T20:10:24.726Z,13.43
2017-09-01T20:12:53.075Z,10.63
2017-09-01T20:15:21.452Z,14.67
2017-09-01T20:17:49.830Z,14.57
2017-09-01T20:20:18.222Z,13.60
2017-09-01T20:22:46.598Z,19.77
2017-09-01T20:25:17.972Z,14.93
2017-09-01T20:27:49.275Z,13.77
2017-09-01T20:30:20.388Z,13.30
2017-09-01T20:32:52.023Z,11.53
2017-09-01T20:35:22.466Z,16.50
2017-09-01T20:37:56.706Z,12.43
2017-09-01T20:40:28.618Z,16.63
2017-09-01T20:43:08.871Z,14.30
2017-09-01T20:45:42.662Z,13.60
2017-09-01T20:48:15.997Z,21.77
2017-09-01T20:50:46.928Z,14.13
2017-09-01T20:53:19.129Z,15.73
2017-09-01T20:55:51.004Z,12.07
2017-09-01T20:58:21.241Z,14.23
2017-09-01T21:00:53.385Z,19.10
2017-09-01T21:03:26.803Z,14.00
2017-09-01T21:05:58.945Z,15.67
2017-09-01T21:08:31.630Z,15.37
2017-09-01T21:11:09.048Z,20.23
2017-09-01T21:13:46.556Z,16.23
2017-09-01T21:16:17.883Z,42.13
2017-09-01T21:18:50.273Z,13.93
2017-09-01T21:21:22.535Z,13.50
2017-09-01T21:23:55.709Z,16.10
2017-09-01T21:26:31.681Z,14.20
2017-09-01T21:29:00.946Z,12.93
2017-09-01T21:31:29.387Z,14.47
2017-09-01T21:33:59.219Z,17.10
2017-09-01T21:36:28.720Z,16.23
2017-09-01T21:38:59.868Z,19.43
2017-09-01T21:41:31.483Z,21.20
2017-09-01T21:44:00.915Z,20.10
2017-09-01T21:46:29.294Z,16.63
2017-09-01T21:48:58.966Z,19.67
2017-09-01T21:51:27.669Z,15.80
2017-09-01T21:53:56.010Z,19.83
2017-09-01T21:56:24.491Z,21.37
2017-09-01T21:58:53.666Z,34.23
2017-09-01T22:01:32.907Z,24.10
2017-09-01T22:04:01.827Z,25.60
2017-09-01T22:06:30.215Z,24.53
2017-09-01T22:08:58.607Z,24.20
2017-09-01T22:11:26.950Z,23.20
2017-09-01T22:13:55.287Z,25.80
2017-09-01T22:16:24.299Z,26.27
2017-09-01T22:18:52.630Z,29.43
2017-09-01T22:21:21.203Z,38.87
2017-09-01T22:23:49.665Z,34.20
2017-09-01T22:26:18.057Z,32.07
2017-09-01T22:28:46.415Z,33.27
2017-09-01T22:31:15.248Z,35.43
2017-09-01T22:33:44.733Z,30.83
2017-09-01T22:36:14.014Z,40.43
2017-09-01T22:38:42.475Z,41.80
2017-09-01T22:41:10.824Z,51.70
2017-09-01T22:43:39.259Z,39.63
2017-09-01T22:46:07.607Z,37.87
2017-09-01T22:48:35.945Z,32.60
2017-09-01T22:51:04.421Z,34.07
2017-09-01T22:53:32.767Z,35.70
2017-09-01T22:56:01.211Z,39.30
2017-09-01T22:58:29.558Z,38.17
2017-09-01T23:00:57.996Z,38.53
2017-09-01T23:03:26.423Z,39.13
2017-09-01T23:05:54.769Z,34.10
2017-09-01T23:08:23.178Z,39.43
2017-09-01T23:10:51.555Z,34.57
2017-09-01T23:13:19.906Z,35.13
2017-09-01T23:15:48.341Z,36.87
2017-09-01T23:18:16.714Z,33.63
2017-09-01T23:20:45.126Z,35.57
2017-09-01T23:23:13.514Z,41.23
2017-09-01T23:25:41.919Z,43.60
2017-09-01T23:28:10.258Z,40.13
2017-09-01T23:30:38.694Z,37.77
2017-09-01T23:33:07.046Z,41.83
2017-09-01T23:35:35.473Z,32.50
2017-09-01T23:38:03.809Z,44.50
2017-09-01T23:40:32.167Z,38.17
2017-09-01T23:43:00.551Z,42.40
2017-09-01T23:45:28.899Z,35.70
2017-09-01T23:47:57.257Z,38.83
2017-09-01T23:50:25.715Z,38.77
2017-09-01T23:52:54.114Z,36.97
2017-09-01T23:55:22.470Z,47.10
2017-09-01T23:57:50.895Z,45.20
